sensor_id;sensor_type;location;lat;lon;timestamp;pressure;altitude;pressure_sealevel;temperature
60731;BMP280;46580;52.114;11.674;2023-05-19T00:01:34;102122.25;;;11.68
60731;BMP280;46580;52.114;11.674;2023-05-19T00:04:02;102122.25;;;11.68
60731;BMP280;46580;52.114;11.674;2023-05-19T00:06:31;102125.56;;;11.70
60731;BMP280;46580;52.114;11.674;2023-05-19T00:09:02;102127.22;;;11.57
60731;BMP280;46580;52.114;11.674;2023-05-19T00:11:28;102120.47;;;11.55
60731;BMP280;46580;52.114;11.674;2023-05-19T00:13:55;102124.69;;;11.42
60731;BMP280;46580;52.114;11.674;2023-05-19T00:16:22;102124.19;;;11.36
60731;BMP280;46580;52.114;11.674;2023-05-19T00:18:48;102122.06;;;11.29
60731;BMP280;46580;52.114;11.674;2023-05-19T00:21:14;102120.56;;;11.25
60731;BMP280;46580;52.114;11.674;2023-05-19T00:23:39;102119.72;;;11.24
60731;BMP280;46580;52.114;11.674;2023-05-19T00:26:05;102125.19;;;11.33
60731;BMP280;46580;52.114;11.674;2023-05-19T00:28:30;102123.84;;;11.27
60731;BMP280;46580;52.114;11.674;2023-05-19T00:30:55;102122.91;;;11.29
60731;BMP280;46580;52.114;11.674;2023-05-19T00:33:21;102114.72;;;11.21
60731;BMP280;46580;52.114;11.674;2023-05-19T00:35:46;102116.94;;;11.27
60731;BMP280;46580;52.114;11.674;2023-05-19T00:38:12;102114.31;;;11.29
60731;BMP280;46580;52.114;11.674;2023-05-19T00:40:37;102112.38;;;11.32
60731;BMP280;46580;52.114;11.674;2023-05-19T00:43:03;102114.31;;;11.29
60731;BMP280;46580;52.114;11.674;2023-05-19T00:45:33;102109.09;;;11.30
60731;BMP280;46580;52.114;11.674;2023-05-19T00:47:59;102112.72;;;11.26
60731;BMP280;46580;52.114;11.674;2023-05-19T00:50:24;102115.56;;;11.22
60731;BMP280;46580;52.114;11.674;2023-05-19T00:52:51;102105.53;;;11.17
60731;BMP280;46580;52.114;11.674;2023-05-19T00:55:17;102116.19;;;11.25
60731;BMP280;46580;52.114;11.674;2023-05-19T00:57:43;102111.75;;;11.29
60731;BMP280;46580;52.114;11.674;2023-05-19T01:00:10;102112.16;;;11.21
60731;BMP280;46580;52.114;11.674;2023-05-19T01:02:35;102112.91;;;11.23
60731;BMP280;46580;52.114;11.674;2023-05-19T01:05:05;102114.56;;;11.24
60731;BMP280;46580;52.114;11.674;2023-05-19T01:07:31;102115.09;;;11.31
60731;BMP280;46580;52.114;11.674;2023-05-19T01:09:57;102107.44;;;11.29
60731;BMP280;46580;52.114;11.674;2023-05-19T01:12:22;102116.03;;;11.28
60731;BMP280;46580;52.114;11.674;2023-05-19T01:14:48;102110.56;;;11.34
60731;BMP280;46580;52.114;11.674;2023-05-19T01:17:20;102116.13;;;11.27
60731;BMP280;46580;52.114;11.674;2023-05-19T01:28:52;102114.28;;;11.00
60731;BMP280;46580;52.114;11.674;2023-05-19T01:31:22;102114.50;;;11.11
60731;BMP280;46580;52.114;11.674;2023-05-19T01:33:48;102110.56;;;11.34
60731;BMP280;46580;52.114;11.674;2023-05-19T01:36:16;102112.97;;;11.37
60731;BMP280;46580;52.114;11.674;2023-05-19T01:38:44;102118.22;;;11.35
60731;BMP280;46580;52.114;11.674;2023-05-19T01:41:10;102120.25;;;11.31
60731;BMP280;46580;52.114;11.674;2023-05-19T01:43:36;102116.03;;;11.28
60731;BMP280;46580;52.114;11.674;2023-05-19T01:46:02;102112.59;;;11.29
60731;BMP280;46580;52.114;11.674;2023-05-19T01:48:29;102119.53;;;11.27
60731;BMP280;46580;52.114;11.674;2023-05-19T01:50:54;102111.66;;;11.15
60731;BMP280;46580;52.114;11.674;2023-05-19T01:53:22;102111.75;;;11.14
60731;BMP280;46580;52.114;11.674;2023-05-19T01:55:52;102115.56;;;11.22
60731;BMP280;46580;52.114;11.674;2023-05-19T02:04:18;102111.31;;;11.21
60731;BMP280;46580;52.114;11.674;2023-05-19T02:11:59;102110.50;;;11.05
60731;BMP280;46580;52.114;11.674;2023-05-19T02:14:34;102111.22;;;10.94
60731;BMP280;46580;52.114;11.674;2023-05-19T02:17:03;102111.47;;;10.89
60731;BMP280;46580;52.114;11.674;2023-05-19T02:19:34;102113.72;;;10.80
60731;BMP280;46580;52.114;11.674;2023-05-19T02:21:59;102109.66;;;10.76
60731;BMP280;46580;52.114;11.674;2023-05-19T02:24:25;102104.84;;;10.70
60731;BMP280;46580;52.114;11.674;2023-05-19T02:26:51;102100.47;;;10.57
60731;BMP280;46580;52.114;11.674;2023-05-19T02:29:17;102109.66;;;10.46
60731;BMP280;46580;52.114;11.674;2023-05-19T02:31:42;102107.66;;;10.36
60731;BMP280;46580;52.114;11.674;2023-05-19T02:34:08;102111.16;;;10.35
60731;BMP280;46580;52.114;11.674;2023-05-19T02:36:34;102106.91;;;10.34
60731;BMP280;46580;52.114;11.674;2023-05-19T02:39:04;102114.13;;;10.27
60731;BMP280;46580;52.114;11.674;2023-05-19T02:41:29;102110.81;;;10.25
60731;BMP280;46580;52.114;11.674;2023-05-19T02:43:55;102103.84;;;10.42
60731;BMP280;46580;52.114;11.674;2023-05-19T02:46:22;102113.25;;;10.43
60731;BMP280;46580;52.114;11.674;2023-05-19T02:48:47;102106.16;;;10.47
60731;BMP280;46580;52.114;11.674;2023-05-19T02:51:13;102104.75;;;10.41
60731;BMP280;46580;52.114;11.674;2023-05-19T02:53:38;102105.34;;;10.46
60731;BMP280;46580;52.114;11.674;2023-05-19T02:56:04;102108.50;;;10.51
60731;BMP280;46580;52.114;11.674;2023-05-19T02:58:29;102097.69;;;10.60
60731;BMP280;46580;52.114;11.674;2023-05-19T03:00:55;102105.09;;;10.36
60731;BMP280;46580;52.114;11.674;2023-05-19T03:03:21;102098.53;;;10.30
60731;BMP280;46580;52.114;11.674;2023-05-19T03:05:47;102104.31;;;10.19
60731;BMP280;46580;52.114;11.674;2023-05-19T03:08:12;102098.34;;;10.18
60731;BMP280;46580;52.114;11.674;2023-05-19T03:10:37;102096.38;;;10.23
60731;BMP280;46580;52.114;11.674;2023-05-19T03:13:03;102096.94;;;10.28
60731;BMP280;46580;52.114;11.674;2023-05-19T03:15:28;102097.44;;;10.19
60731;BMP280;46580;52.114;11.674;2023-05-19T03:17:54;102093.03;;;10.21
60731;BMP280;46580;52.114;11.674;2023-05-19T03:20:20;102098.50;;;10.15
60731;BMP280;46580;52.114;11.674;2023-05-19T03:22:46;102100.06;;;10.03
60731;BMP280;46580;52.114;11.674;2023-05-19T03:25:12;102102.47;;;9.90
60731;BMP280;46580;52.114;11.674;2023-05-19T03:27:37;102114.47;;;9.90
60731;BMP280;46580;52.114;11.674;2023-05-19T03:30:03;102104.94;;;9.92
60731;BMP280;46580;52.114;11.674;2023-05-19T03:32:29;102107.59;;;9.90
60731;BMP280;46580;52.114;11.674;2023-05-19T03:34:56;102108.56;;;9.88
60731;BMP280;46580;52.114;11.674;2023-05-19T03:37:21;102114.56;;;9.88
60731;BMP280;46580;52.114;11.674;2023-05-19T03:39:47;102109.09;;;9.94
60731;BMP280;46580;52.114;11.674;2023-05-19T03:42:12;102120.03;;;9.98
60731;BMP280;46580;52.114;11.674;2023-05-19T03:44:38;102113.53;;;10.07
60731;BMP280;46580;52.114;11.674;2023-05-19T03:47:03;102119.41;;;10.09
60731;BMP280;46580;52.114;11.674;2023-05-19T03:49:29;102114.09;;;10.12
60731;BMP280;46580;52.114;11.674;2023-05-19T03:51:54;102116.75;;;10.11
60731;BMP280;46580;52.114;11.674;2023-05-19T03:54:20;102113.78;;;10.03
60731;BMP280;46580;52.114;11.674;2023-05-19T03:56:46;102120.03;;;9.98
60731;BMP280;46580;52.114;11.674;2023-05-19T03:59:12;102126.06;;;9.82
60731;BMP280;46580;52.114;11.674;2023-05-19T04:01:37;102126.25;;;9.77
60731;BMP280;46580;52.114;11.674;2023-05-19T04:04:03;102121.41;;;9.71
60731;BMP280;46580;52.114;11.674;2023-05-19T04:06:28;102123.63;;;9.79
60731;BMP280;46580;52.114;11.674;2023-05-19T04:08:53;102126.97;;;9.81
60731;BMP280;46580;52.114;11.674;2023-05-19T04:11:19;102124.16;;;9.85
60731;BMP280;46580;52.114;11.674;2023-05-19T04:13:45;102123.09;;;9.89
60731;BMP280;46580;52.114;11.674;2023-05-19T04:16:10;102122.03;;;9.93
60731;BMP280;46580;52.114;11.674;2023-05-19T04:18:36;102131.22;;;10.13
60731;BMP280;46580;52.114;11.674;2023-05-19T04:21:01;102126.06;;;10.13
60731;BMP280;46580;52.114;11.674;2023-05-19T04:23:27;102129.72;;;10.09
60731;BMP280;46580;52.114;11.674;2023-05-19T04:25:52;102122.25;;;10.20
60731;BMP280;46580;52.114;11.674;2023-05-19T04:28:18;102128.22;;;10.21
60731;BMP280;46580;52.114;11.674;2023-05-19T04:30:44;102120.50;;;10.21
60731;BMP280;46580;52.114;11.674;2023-05-19T04:33:12;102120.44;;;10.22
60731;BMP280;46580;52.114;11.674;2023-05-19T04:35:37;102125.25;;;10.28
60731;BMP280;46580;52.114;11.674;2023-05-19T04:38:04;102124.59;;;10.40
60731;BMP280;46580;52.114;11.674;2023-05-19T04:40:30;102132.72;;;10.32
60731;BMP280;46580;52.114;11.674;2023-05-19T04:42:56;102134.25;;;10.36
60731;BMP280;46580;52.114;11.674;2023-05-19T04:45:22;102127.94;;;10.41
60731;BMP280;46580;52.114;11.674;2023-05-19T04:47:48;102136.13;;;10.33
60731;BMP280;46580;52.114;11.674;2023-05-19T04:50:13;102131.75;;;10.35
60731;BMP280;46580;52.114;11.674;2023-05-19T04:52:40;102127.59;;;10.47
60731;BMP280;46580;52.114;11.674;2023-05-19T04:55:06;102121.97;;;10.56
60731;BMP280;46580;52.114;11.674;2023-05-19T04:57:32;102126.34;;;10.54
60731;BMP280;46580;52.114;11.674;2023-05-19T04:59:57;102119.97;;;10.61
60731;BMP280;46580;52.114;11.674;2023-05-19T05:02:27;102113.72;;;10.65
60731;BMP280;46580;52.114;11.674;2023-05-19T05:04:53;102117.53;;;10.73
60731;BMP280;46580;52.114;11.674;2023-05-19T05:07:19;102118.38;;;10.74
60731;BMP280;46580;52.114;11.674;2023-05-19T05:09:46;102118.78;;;10.81
60731;BMP280;46580;52.114;11.674;2023-05-19T05:12:13;102118.72;;;10.83
60731;BMP280;46580;52.114;11.674;2023-05-19T05:14:39;102124.44;;;10.88
60731;BMP280;46580;52.114;11.674;2023-05-19T05:17:05;102122.34;;;10.94
60731;BMP280;46580;52.114;11.674;2023-05-19T05:19:31;102122.88;;;11.14
60731;BMP280;46580;52.114;11.674;2023-05-19T05:21:57;102117.53;;;11.32
60731;BMP280;46580;52.114;11.674;2023-05-19T05:24:22;102116.38;;;11.22
60731;BMP280;46580;52.114;11.674;2023-05-19T05:26:48;102116.03;;;11.28
60731;BMP280;46580;52.114;11.674;2023-05-19T05:29:13;102120.16;;;11.46
60731;BMP280;46580;52.114;11.674;2023-05-19T05:31:39;102121.66;;;11.50
60731;BMP280;46580;52.114;11.674;2023-05-19T05:34:06;102122.06;;;11.57
60731;BMP280;46580;52.114;11.674;2023-05-19T05:36:31;102119.59;;;11.70
60731;BMP280;46580;52.114;11.674;2023-05-19T05:38:59;102125.03;;;11.65
60731;BMP280;46580;52.114;11.674;2023-05-19T05:41:26;102116.34;;;11.80
60731;BMP280;46580;52.114;11.674;2023-05-19T05:43:53;102116.47;;;11.92
60731;BMP280;46580;52.114;11.674;2023-05-19T05:46:19;102116.28;;;11.95
60731;BMP280;46580;52.114;11.674;2023-05-19T05:48:45;102125.22;;;12.03
60731;BMP280;46580;52.114;11.674;2023-05-19T05:51:11;102120.38;;;12.12
60731;BMP280;46580;52.114;11.674;2023-05-19T05:53:40;102118.78;;;11.96
60731;BMP280;46580;52.114;11.674;2023-05-19T05:56:10;102123.03;;;11.97
60731;BMP280;46580;52.114;11.674;2023-05-19T05:58:35;102120.34;;;11.85
60731;BMP280;46580;52.114;11.674;2023-05-19T06:01:02;102125.06;;;11.92
60731;BMP280;46580;52.114;11.674;2023-05-19T06:03:28;102124.00;;;11.81
60731;BMP280;46580;52.114;11.674;2023-05-19T06:05:56;102117.66;;;11.87
60731;BMP280;46580;52.114;11.674;2023-05-19T06:08:21;102120.16;;;11.88
60731;BMP280;46580;52.114;11.674;2023-05-19T06:10:47;102130.41;;;12.03
60731;BMP280;46580;52.114;11.674;2023-05-19T06:13:12;102125.03;;;12.06
60731;BMP280;46580;52.114;11.674;2023-05-19T06:15:37;102119.78;;;12.21
60731;BMP280;46580;52.114;11.674;2023-05-19T06:18:03;102122.19;;;12.38
60731;BMP280;46580;52.114;11.674;2023-05-19T06:20:28;102124.09;;;12.48
60731;BMP280;46580;52.114;11.674;2023-05-19T06:22:54;102120.03;;;12.58
60731;BMP280;46580;52.114;11.674;2023-05-19T06:25:19;102124.00;;;12.63
60731;BMP280;46580;52.114;11.674;2023-05-19T06:27:45;102120.03;;;12.58
60731;BMP280;46580;52.114;11.674;2023-05-19T06:30:11;102123.34;;;12.60
60731;BMP280;46580;52.114;11.674;2023-05-19T06:32:36;102128.50;;;12.60
60731;BMP280;46580;52.114;11.674;2023-05-19T06:35:02;102127.69;;;12.59
60731;BMP280;46580;52.114;11.674;2023-05-19T06:37:28;102124.16;;;12.60
60731;BMP280;46580;52.114;11.674;2023-05-19T06:39:53;102119.09;;;12.72
60731;BMP280;46580;52.114;11.674;2023-05-19T06:42:19;102117.66;;;12.81
60731;BMP280;46580;52.114;11.674;2023-05-19T06:44:50;102119.78;;;12.88
60731;BMP280;46580;52.114;11.674;2023-05-19T06:47:16;102118.84;;;12.89
60731;BMP280;46580;52.114;11.674;2023-05-19T06:49:42;102119.97;;;12.85
60731;BMP280;46580;52.114;11.674;2023-05-19T06:52:08;102123.44;;;12.98
60731;BMP280;46580;52.114;11.674;2023-05-19T06:54:33;102121.25;;;12.92
60731;BMP280;46580;52.114;11.674;2023-05-19T06:56:59;102123.63;;;12.95
60731;BMP280;46580;52.114;11.674;2023-05-19T06:59:24;102118.72;;;12.78
60731;BMP280;46580;52.114;11.674;2023-05-19T07:01:50;102119.97;;;12.85
60731;BMP280;46580;52.114;11.674;2023-05-19T07:04:15;102117.63;;;13.20
60731;BMP280;46580;52.114;11.674;2023-05-19T07:06:41;102119.06;;;13.24
60731;BMP280;46580;52.114;11.674;2023-05-19T07:09:06;102125.50;;;13.31
60731;BMP280;46580;52.114;11.674;2023-05-19T07:11:33;102115.75;;;13.22
60731;BMP280;46580;52.114;11.674;2023-05-19T07:13:58;102120.41;;;13.17
60731;BMP280;46580;52.114;11.674;2023-05-19T07:16:24;102120.06;;;13.09
60731;BMP280;46580;52.114;11.674;2023-05-19T07:18:49;102124.72;;;13.55
60731;BMP280;46580;52.114;11.674;2023-05-19T07:21:14;102116.59;;;13.35
60731;BMP280;46580;52.114;11.674;2023-05-19T07:23:40;102118.50;;;13.57
60731;BMP280;46580;52.114;11.674;2023-05-19T07:26:05;102118.28;;;13.48
60731;BMP280;46580;52.114;11.674;2023-05-19T07:28:31;102128.25;;;13.54
60731;BMP280;46580;52.114;11.674;2023-05-19T07:30:58;102125.13;;;13.49
60731;BMP280;46580;52.114;11.674;2023-05-19T07:33:23;102113.66;;;13.77
60731;BMP280;46580;52.114;11.674;2023-05-19T07:35:51;102113.72;;;14.01
60731;BMP280;46580;52.114;11.674;2023-05-19T07:38:21;102112.03;;;14.13
60731;BMP280;46580;52.114;11.674;2023-05-19T07:40:47;102103.03;;;14.06
60731;BMP280;46580;52.114;11.674;2023-05-19T07:43:12;102104.78;;;14.17
60731;BMP280;46580;52.114;11.674;2023-05-19T07:45:37;102090.91;;;14.53
60731;BMP280;46580;52.114;11.674;2023-05-19T07:48:03;102092.28;;;14.47
60731;BMP280;46580;52.114;11.674;2023-05-19T07:50:31;102094.31;;;14.89
60731;BMP280;46580;52.114;11.674;2023-05-19T07:52:57;102089.41;;;15.20
60731;BMP280;46580;52.114;11.674;2023-05-19T07:55:22;102093.66;;;14.98
60731;BMP280;46580;52.114;11.674;2023-05-19T07:57:49;102088.50;;;14.86
60731;BMP280;46580;52.114;11.674;2023-05-19T08:00:15;102100.75;;;14.84
60731;BMP280;46580;52.114;11.674;2023-05-19T08:02:42;102097.50;;;14.92
60731;BMP280;46580;52.114;11.674;2023-05-19T08:05:07;102092.44;;;15.14
60731;BMP280;46580;52.114;11.674;2023-05-19T08:07:33;102084.13;;;15.32
60731;BMP280;46580;52.114;11.674;2023-05-19T08:09:58;102086.94;;;15.73
60731;BMP280;46580;52.114;11.674;2023-05-19T08:12:24;102081.84;;;15.72
60731;BMP280;46580;52.114;11.674;2023-05-19T08:14:49;102082.94;;;15.91
60731;BMP280;46580;52.114;11.674;2023-05-19T08:17:15;102077.78;;;16.01
60731;BMP280;46580;52.114;11.674;2023-05-19T08:19:40;102074.72;;;15.97
60731;BMP280;46580;52.114;11.674;2023-05-19T08:22:06;102076.03;;;16.23
60731;BMP280;46580;52.114;11.674;2023-05-19T08:24:31;102079.31;;;16.25
60731;BMP280;46580;52.114;11.674;2023-05-19T08:26:59;102076.06;;;16.54
60731;BMP280;46580;52.114;11.674;2023-05-19T08:29:25;102072.50;;;16.66
60731;BMP280;46580;52.114;11.674;2023-05-19T08:31:50;102057.06;;;16.54
60731;BMP280;46580;52.114;11.674;2023-05-19T08:34:17;102051.19;;;16.41
60731;BMP280;46580;52.114;11.674;2023-05-19T08:36:43;102054.16;;;16.26
60731;BMP280;46580;52.114;11.674;2023-05-19T08:39:09;102054.41;;;16.23
60731;BMP280;46580;52.114;11.674;2023-05-19T08:41:35;102046.72;;;16.11
60731;BMP280;46580;52.114;11.674;2023-05-19T08:44:00;102043.53;;;16.29
60731;BMP280;46580;52.114;11.674;2023-05-19T08:46:27;102044.25;;;16.20
60731;BMP280;46580;52.114;11.674;2023-05-19T08:48:57;102049.19;;;16.34
60731;BMP280;46580;52.114;11.674;2023-05-19T08:51:41;102058.16;;;16.40
60731;BMP280;46580;52.114;11.674;2023-05-19T08:54:14;102048.00;;;16.27
60731;BMP280;46580;52.114;11.674;2023-05-19T08:56:42;102039.94;;;16.40
60731;BMP280;46580;52.114;11.674;2023-05-19T08:59:07;102037.63;;;17.10
60731;BMP280;46580;52.114;11.674;2023-05-19T09:01:33;102027.34;;;17.77
60731;BMP280;46580;52.114;11.674;2023-05-19T09:03:58;102030.19;;;17.74
60731;BMP280;46580;52.114;11.674;2023-05-19T09:06:24;102025.56;;;17.78
60731;BMP280;46580;52.114;11.674;2023-05-19T09:08:50;102017.91;;;18.15
60731;BMP280;46580;52.114;11.674;2023-05-19T09:11:15;102019.22;;;18.00
60731;BMP280;46580;52.114;11.674;2023-05-19T09:13:41;102016.16;;;18.24
60731;BMP280;46580;52.114;11.674;2023-05-19T09:16:06;102013.56;;;18.34
60731;BMP280;46580;52.114;11.674;2023-05-19T09:18:33;102011.09;;;18.23
60731;BMP280;46580;52.114;11.674;2023-05-19T09:21:00;102018.19;;;18.12
60731;BMP280;46580;52.114;11.674;2023-05-19T09:23:28;102010.75;;;17.98
60731;BMP280;46580;52.114;11.674;2023-05-19T09:25:54;102009.00;;;18.26
60731;BMP280;46580;52.114;11.674;2023-05-19T09:28:26;102013.19;;;17.90
60731;BMP280;46580;52.114;11.674;2023-05-19T09:31:05;102018.16;;;18.03
60731;BMP280;46580;52.114;11.674;2023-05-19T09:33:33;102021.91;;;18.28
60731;BMP280;46580;52.114;11.674;2023-05-19T09:35:59;102017.75;;;18.07
60731;BMP280;46580;52.114;11.674;2023-05-19T09:38:26;102015.06;;;18.18
60731;BMP280;46580;52.114;11.674;2023-05-19T09:40:52;102015.63;;;18.30
60731;BMP280;46580;52.114;11.674;2023-05-19T09:43:20;102008.63;;;18.40
60731;BMP280;46580;52.114;11.674;2023-05-19T09:45:46;101998.56;;;18.83
60731;BMP280;46580;52.114;11.674;2023-05-19T09:48:13;102010.59;;;18.57
60731;BMP280;46580;52.114;11.674;2023-05-19T09:50:39;102000.16;;;18.57
60731;BMP280;46580;52.114;11.674;2023-05-19T09:53:04;102011.13;;;18.60
60731;BMP280;46580;52.114;11.674;2023-05-19T09:55:29;102005.66;;;18.44
60731;BMP280;46580;52.114;11.674;2023-05-19T09:57:57;102004.19;;;18.13
60731;BMP280;46580;52.114;11.674;2023-05-19T10:00:25;101993.88;;;18.02
60731;BMP280;46580;52.114;11.674;2023-05-19T10:02:51;101992.78;;;18.05
60731;BMP280;46580;52.114;11.674;2023-05-19T10:05:17;101991.38;;;18.39
60731;BMP280;46580;52.114;11.674;2023-05-19T10:07:49;101989.72;;;18.38
60731;BMP280;46580;52.114;11.674;2023-05-19T10:10:16;101983.09;;;18.34
60731;BMP280;46580;52.114;11.674;2023-05-19T10:12:42;101983.09;;;18.34
60731;BMP280;46580;52.114;11.674;2023-05-19T10:15:13;101995.34;;;18.61
60731;BMP280;46580;52.114;11.674;2023-05-19T10:17:40;101977.34;;;19.14
60731;BMP280;46580;52.114;11.674;2023-05-19T10:20:11;101978.34;;;19.13
60731;BMP280;46580;52.114;11.674;2023-05-19T10:22:38;101967.72;;;19.24
60731;BMP280;46580;52.114;11.674;2023-05-19T10:27:38;101966.94;;;19.05
60731;BMP280;46580;52.114;11.674;2023-05-19T10:30:08;101963.38;;;19.06
60731;BMP280;46580;52.114;11.674;2023-05-19T10:32:37;101972.19;;;18.96
60731;BMP280;46580;52.114;11.674;2023-05-19T10:41:01;101958.44;;;18.66
60731;BMP280;46580;52.114;11.674;2023-05-19T10:43:37;101958.72;;;18.81
60731;BMP280;46580;52.114;11.674;2023-05-19T10:46:06;101954.16;;;19.02
60731;BMP280;46580;52.114;11.674;2023-05-19T10:48:35;101956.66;;;19.03
60731;BMP280;46580;52.114;11.674;2023-05-19T10:51:01;101957.06;;;18.80
60731;BMP280;46580;52.114;11.674;2023-05-19T10:53:31;101949.63;;;18.67
60731;BMP280;46580;52.114;11.674;2023-05-19T10:55:57;101951.44;;;19.03
60731;BMP280;46580;52.114;11.674;2023-05-19T11:01:13;101947.72;;;18.97
60731;BMP280;46580;52.114;11.674;2023-05-19T11:03:49;101949.63;;;18.67
60731;BMP280;46580;52.114;11.674;2023-05-19T11:06:30;101945.09;;;18.69
60731;BMP280;46580;52.114;11.674;2023-05-19T11:09:13;101944.28;;;18.87
60731;BMP280;46580;52.114;11.674;2023-05-19T11:11:52;101943.72;;;19.11
60731;BMP280;46580;52.114;11.674;2023-05-19T11:14:22;101937.75;;;19.28
60731;BMP280;46580;52.114;11.674;2023-05-19T11:16:52;101939.47;;;19.01
60731;BMP280;46580;52.114;11.674;2023-05-19T11:19:36;101937.81;;;19.09
60731;BMP280;46580;52.114;11.674;2023-05-19T11:22:12;101944.22;;;19.33
60731;BMP280;46580;52.114;11.674;2023-05-19T11:24:38;101947.13;;;19.21
60731;BMP280;46580;52.114;11.674;2023-05-19T11:29:49;101938.28;;;19.40
60731;BMP280;46580;52.114;11.674;2023-05-19T11:32:16;101943.22;;;19.79
60731;BMP280;46580;52.114;11.674;2023-05-19T11:34:43;101924.84;;;19.71
60731;BMP280;46580;52.114;11.674;2023-05-19T11:37:10;101935.38;;;19.79
60731;BMP280;46580;52.114;11.674;2023-05-19T11:39:39;101928.50;;;19.42
60731;BMP280;46580;52.114;11.674;2023-05-19T11:42:05;101934.59;;;19.69
60731;BMP280;46580;52.114;11.674;2023-05-19T11:44:30;101931.22;;;19.86
60731;BMP280;46580;52.114;11.674;2023-05-19T11:47:05;101931.91;;;19.52
60731;BMP280;46580;52.114;11.674;2023-05-19T11:49:33;101918.09;;;19.69
60731;BMP280;46580;52.114;11.674;2023-05-19T11:51:59;101920.41;;;19.36
60731;BMP280;46580;52.114;11.674;2023-05-19T11:54:33;101913.44;;;19.63
60731;BMP280;46580;52.114;11.674;2023-05-19T11:57:03;101917.28;;;19.94
60731;BMP280;46580;52.114;11.674;2023-05-19T11:59:33;101911.28;;;20.45
60731;BMP280;46580;52.114;11.674;2023-05-19T12:02:17;101915.16;;;20.58
60731;BMP280;46580;52.114;11.674;2023-05-19T12:04:53;101926.53;;;20.67
60731;BMP280;46580;52.114;11.674;2023-05-19T12:07:21;101918.81;;;20.31
60731;BMP280;46580;52.114;11.674;2023-05-19T12:09:50;101915.69;;;19.84
60731;BMP280;46580;52.114;11.674;2023-05-19T12:12:17;101915.44;;;19.78
60731;BMP280;46580;52.114;11.674;2023-05-19T12:14:45;101907.16;;;19.56
60731;BMP280;46580;52.114;11.674;2023-05-19T12:17:18;101905.78;;;19.52
60731;BMP280;46580;52.114;11.674;2023-05-19T12:19:46;101907.09;;;19.39
60731;BMP280;46580;52.114;11.674;2023-05-19T12:22:13;101908.63;;;19.32
60731;BMP280;46580;52.114;11.674;2023-05-19T12:24:38;101916.56;;;19.40
60731;BMP280;46580;52.114;11.674;2023-05-19T12:27:19;101913.72;;;19.24
60731;BMP280;46580;52.114;11.674;2023-05-19T12:29:49;101906.50;;;19.45
60731;BMP280;46580;52.114;11.674;2023-05-19T12:32:22;101912.16;;;19.40
60731;BMP280;46580;52.114;11.674;2023-05-19T12:34:48;101916.34;;;19.15
60731;BMP280;46580;52.114;11.674;2023-05-19T12:37:14;101908.88;;;19.29
60731;BMP280;46580;52.114;11.674;2023-05-19T12:39:41;101912.69;;;19.79
60731;BMP280;46580;52.114;11.674;2023-05-19T12:42:07;101911.34;;;20.36
60731;BMP280;46580;52.114;11.674;2023-05-19T12:44:49;101906.66;;;19.96
60731;BMP280;46580;52.114;11.674;2023-05-19T12:47:17;101902.34;;;19.87
60731;BMP280;46580;52.114;11.674;2023-05-19T12:52:24;101901.34;;;19.88
60731;BMP280;46580;52.114;11.674;2023-05-19T12:54:49;101897.16;;;20.21
60731;BMP280;46580;52.114;11.674;2023-05-19T12:57:21;101897.81;;;20.06
60731;BMP280;46580;52.114;11.674;2023-05-19T12:59:47;101887.94;;;20.00
60731;BMP280;46580;52.114;11.674;2023-05-19T13:02:13;101893.47;;;19.71
60731;BMP280;46580;52.114;11.674;2023-05-19T13:04:39;101899.63;;;19.79
60731;BMP280;46580;52.114;11.674;2023-05-19T13:07:04;101890.00;;;19.80
60731;BMP280;46580;52.114;11.674;2023-05-19T13:09:30;101895.25;;;19.97
60731;BMP280;46580;52.114;11.674;2023-05-19T13:11:59;101896.22;;;19.96
60731;BMP280;46580;52.114;11.674;2023-05-19T13:14:25;101896.47;;;19.76
60731;BMP280;46580;52.114;11.674;2023-05-19T13:16:50;101895.22;;;19.80
60731;BMP280;46580;52.114;11.674;2023-05-19T13:19:17;101889.34;;;19.95
60731;BMP280;46580;52.114;11.674;2023-05-19T13:21:45;101879.47;;;19.89
60731;BMP280;46580;52.114;11.674;2023-05-19T13:24:17;101880.94;;;19.74
60731;BMP280;46580;52.114;11.674;2023-05-19T13:26:44;101875.28;;;19.96
60731;BMP280;46580;52.114;11.674;2023-05-19T13:29:09;101878.59;;;19.98
60731;BMP280;46580;52.114;11.674;2023-05-19T13:31:36;101878.81;;;20.04
60731;BMP280;46580;52.114;11.674;2023-05-19T13:34:01;101881.94;;;19.74
60731;BMP280;46580;52.114;11.674;2023-05-19T13:36:27;101873.78;;;19.76
60731;BMP280;46580;52.114;11.674;2023-05-19T13:38:53;101878.97;;;20.03
60731;BMP280;46580;52.114;11.674;2023-05-19T13:41:25;101876.75;;;20.25
60731;BMP280;46580;52.114;11.674;2023-05-19T13:43:51;101875.63;;;20.27
60731;BMP280;46580;52.114;11.674;2023-05-19T13:46:20;101869.66;;;20.17
60731;BMP280;46580;52.114;11.674;2023-05-19T13:48:45;101856.09;;;20.22
60731;BMP280;46580;52.114;11.674;2023-05-19T13:51:11;101872.50;;;20.07
60731;BMP280;46580;52.114;11.674;2023-05-19T13:53:39;101863.06;;;20.13
60731;BMP280;46580;52.114;11.674;2023-05-19T13:56:05;101872.41;;;20.50
60731;BMP280;46580;52.114;11.674;2023-05-19T13:58:30;101868.06;;;20.58
60731;BMP280;46580;52.114;11.674;2023-05-19T14:00:56;101854.59;;;20.70
60731;BMP280;46580;52.114;11.674;2023-05-19T14:03:24;101869.72;;;20.59
60731;BMP280;46580;52.114;11.674;2023-05-19T14:05:50;101868.75;;;20.60
60731;BMP280;46580;52.114;11.674;2023-05-19T14:08:16;101864.09;;;20.71
60731;BMP280;46580;52.114;11.674;2023-05-19T14:10:41;101858.38;;;20.76
60731;BMP280;46580;52.114;11.674;2023-05-19T14:13:07;101850.19;;;21.21
60731;BMP280;46580;52.114;11.674;2023-05-19T14:15:34;101847.94;;;21.25
60731;BMP280;46580;52.114;11.674;2023-05-19T14:18:02;101860.50;;;20.55
60731;BMP280;46580;52.114;11.674;2023-05-19T14:20:27;101855.03;;;20.41